createdAt,value
2022-09-20T00:00:50.243Z,101077.75
2022-09-20T00:05:49.987Z,101060.91
2022-09-20T00:10:50.205Z,101081.41
2022-09-20T00:15:49.916Z,101088.22
2022-09-20T00:20:48.482Z,101092.69
2022-09-20T00:25:56.158Z,101091.47
2022-09-20T00:30:54.554Z,101093.34
2022-09-20T00:35:53.653Z,101078.22
2022-09-20T00:40:53.347Z,101080.91
2022-09-20T00:45:52.639Z,101074.28
2022-09-20T00:50:55.363Z,101078.31
2022-09-20T00:55:55.874Z,101084.00
2022-09-20T01:00:57.527Z,101071.38
2022-09-20T01:05:55.702Z,101073.25
2022-09-20T01:10:55.150Z,101066.63
2022-09-20T01:15:54.809Z,101055.34
2022-09-20T01:20:51.552Z,101046.28
2022-09-20T01:26:05.905Z,101037.72
2022-09-20T01:31:08.141Z,101041.97
2022-09-20T01:36:06.497Z,101045.13
2022-09-20T01:41:05.505Z,101041.28
2022-09-20T01:46:05.544Z,101030.66
2022-09-20T01:51:17.250Z,101053.19
2022-09-20T01:56:34.200Z,101054.38
2022-09-20T02:01:45.687Z,101043.09
2022-09-20T02:07:04.717Z,101048.13
2022-09-20T02:12:19.189Z,101049.03
2022-09-20T02:17:20.407Z,101050.22
2022-09-20T02:22:28.442Z,101047.84
2022-09-20T02:27:30.711Z,101054.03
2022-09-20T02:32:34.782Z,101059.91
2022-09-20T02:37:54.513Z,101060.78
2022-09-20T02:42:58.102Z,101068.69
2022-09-20T02:47:57.863Z,101063.19
2022-09-20T02:53:04.977Z,101070.38
2022-09-20T02:58:09.920Z,101068.34
2022-09-20T03:03:13.537Z,101074.72
2022-09-20T03:08:28.514Z,101076.75
2022-09-20T03:13:31.572Z,101078.88
2022-09-20T03:18:33.657Z,101074.44
2022-09-20T03:23:38.137Z,101080.53
2022-09-20T03:28:42.172Z,101085.91
2022-09-20T03:33:44.070Z,101072.72
2022-09-20T03:38:58.305Z,101077.63
2022-09-20T03:44:03.167Z,101082.88
2022-09-20T03:49:10.401Z,101084.22
2022-09-20T03:54:25.654Z,101064.88
2022-09-20T03:59:35.701Z,101086.53
2022-09-20T04:04:36.611Z,101096.56
2022-09-20T04:09:51.663Z,101098.47
2022-09-20T04:14:56.301Z,101098.00
2022-09-20T04:20:01.781Z,101107.34
2022-09-20T04:25:03.654Z,101109.88
2022-09-20T04:30:04.934Z,101116.25
2022-09-20T04:35:27.989Z,101116.22
2022-09-20T04:40:40.789Z,101132.50
2022-09-20T04:46:01.793Z,101128.50
2022-09-20T04:51:13.497Z,101131.53
2022-09-20T04:56:22.133Z,101119.94
2022-09-20T05:01:43.140Z,101132.59
2022-09-20T05:07:12.166Z,101132.19
2022-09-20T05:12:42.619Z,101130.91
2022-09-20T05:17:52.209Z,101142.53
2022-09-20T05:23:03.778Z,101155.34
2022-09-20T05:28:06.456Z,101157.59
2022-09-20T05:33:26.608Z,101158.59
2022-09-20T05:43:37.421Z,101166.88
2022-09-20T05:48:38.952Z,101168.91
2022-09-20T05:53:56.788Z,101162.91
2022-09-20T05:59:08.207Z,101188.09
2022-09-20T06:04:15.596Z,101183.56
2022-09-20T06:09:46.459Z,101176.81
2022-09-20T06:14:47.254Z,101181.84
2022-09-20T06:19:47.044Z,101185.66
2022-09-20T06:24:47.030Z,101195.94
2022-09-20T06:30:04.986Z,101194.72
2022-09-20T06:35:15.978Z,101194.09
2022-09-20T06:41:22.300Z,101203.06
2022-09-20T06:47:44.148Z,101204.16
2022-09-20T06:53:30.825Z,101204.72
2022-09-20T07:23:20.108Z,101230.06
2022-09-20T07:28:19.334Z,101235.22
2022-09-20T07:33:21.022Z,101216.66
2022-09-20T07:38:20.374Z,101233.38
2022-09-20T07:43:22.776Z,101226.59
2022-09-20T07:48:27.103Z,101222.63
2022-09-20T07:53:24.084Z,101210.47
2022-09-20T07:58:26.356Z,101208.09
2022-09-20T08:03:23.215Z,101218.00
2022-09-20T08:08:23.508Z,101210.84
2022-09-20T08:19:00.304Z,101205.72
2022-09-20T08:24:05.444Z,101194.03
2022-09-20T08:29:08.829Z,101196.25
2022-09-20T08:34:08.677Z,101194.44
2022-09-20T08:44:45.746Z,101173.72
2022-09-20T08:49:46.138Z,101174.28
2022-09-20T08:54:45.287Z,101168.16
2022-09-20T08:59:44.137Z,101166.28
2022-09-20T09:04:55.631Z,101153.69
2022-09-20T09:10:04.967Z,101150.06
2022-09-20T09:15:19.921Z,101135.56
2022-09-20T09:20:27.354Z,101142.31
2022-09-20T09:25:37.607Z,101131.09
2022-09-20T09:43:53.931Z,101130.28
2022-09-20T09:49:26.931Z,101122.88
2022-09-20T09:54:27.881Z,101109.59
2022-09-20T09:59:44.211Z,101105.31
2022-09-20T10:04:53.848Z,101095.63
2022-09-20T10:16:48.449Z,101105.06
2022-09-20T10:21:55.823Z,101094.19
2022-09-20T10:27:12.022Z,101095.63
2022-09-20T10:32:21.277Z,101097.84
2022-09-20T10:37:28.917Z,101089.41
2022-09-20T10:42:53.195Z,101099.06
2022-09-20T10:47:56.712Z,101085.47
2022-09-20T10:53:06.157Z,101087.72
2022-09-20T10:58:17.049Z,101091.63
2022-09-20T11:03:29.730Z,101076.00
2022-09-20T11:08:32.473Z,101078.59
2022-09-20T11:14:06.695Z,101074.94
2022-09-20T11:19:11.605Z,101060.59
2022-09-20T11:24:14.555Z,101058.09
2022-09-20T11:29:21.337Z,101053.78
2022-09-20T11:34:21.096Z,101058.38
2022-09-20T11:39:22.052Z,101052.84
2022-09-20T11:44:21.193Z,101048.97
2022-09-20T11:49:23.336Z,101045.06
2022-09-20T11:54:47.660Z,101036.00
2022-09-20T11:59:52.288Z,101026.69
2022-09-20T12:04:52.849Z,101031.28
2022-09-20T12:09:53.322Z,101034.06
2022-09-20T12:15:00.769Z,101034.06
2022-09-20T12:19:57.526Z,101013.84
2022-09-20T12:25:15.195Z,101024.28
2022-09-20T12:30:20.340Z,101009.78
2022-09-20T12:35:38.738Z,101029.06
2022-09-20T12:40:38.497Z,101021.69
2022-09-20T12:45:36.821Z,101024.00
2022-09-20T12:50:53.728Z,100994.53
2022-09-20T12:55:54.502Z,101009.66
2022-09-20T13:01:14.436Z,101025.13
2022-09-20T13:06:26.744Z,101002.97
2022-09-20T13:11:24.546Z,101024.06
2022-09-20T13:16:26.406Z,100994.88
2022-09-20T13:21:23.731Z,101023.41
2022-09-20T13:26:23.622Z,101023.63
2022-09-20T13:31:44.777Z,101012.72
2022-09-20T13:37:04.204Z,101015.28
2022-09-20T13:42:06.496Z,101018.94
2022-09-20T13:47:06.996Z,101013.81
2022-09-20T13:52:16.882Z,101002.81
2022-09-20T13:57:21.447Z,101016.16
2022-09-20T14:02:23.047Z,101017.19
2022-09-20T14:07:20.319Z,101024.47
2022-09-20T14:12:18.856Z,101018.28
2022-09-20T14:17:19.846Z,101023.81
2022-09-20T14:22:25.169Z,101021.47
2022-09-20T14:27:23.547Z,101018.09
2022-09-20T14:32:31.394Z,101022.97
2022-09-20T14:37:30.133Z,101027.94
2022-09-20T14:42:31.531Z,101036.81
2022-09-20T14:47:29.323Z,101034.66
2022-09-20T14:52:35.185Z,101029.09
2022-09-20T14:57:38.407Z,101037.41
2022-09-20T15:02:35.726Z,101033.72
2022-09-20T15:07:32.555Z,101027.41
2022-09-20T15:12:29.355Z,101028.38
2022-09-20T15:17:28.293Z,101025.69
2022-09-20T15:22:25.849Z,101028.81
2022-09-20T15:27:28.199Z,101015.56
2022-09-20T15:32:25.411Z,101017.88
2022-09-20T15:37:23.308Z,101018.34
2022-09-20T15:42:23.362Z,101039.06
2022-09-20T15:47:35.336Z,101047.03
2022-09-20T15:52:35.705Z,101044.53
2022-09-20T15:57:34.321Z,101050.63
2022-09-20T16:02:31.292Z,101048.19
2022-09-20T16:07:28.554Z,101047.56
2022-09-20T16:12:27.196Z,101059.41
2022-09-20T16:17:44.444Z,101057.34
2022-09-20T16:22:41.541Z,101062.44
2022-09-20T16:27:40.220Z,101062.63
2022-09-20T16:32:37.019Z,101069.84
2022-09-20T16:37:45.869Z,101071.19
2022-09-20T16:42:51.501Z,101079.06
2022-09-20T16:47:49.576Z,101078.00
2022-09-20T16:52:46.653Z,101082.56
2022-09-20T16:57:48.378Z,101085.31
2022-09-20T17:02:49.480Z,101098.13
2022-09-20T17:07:47.513Z,101083.53
2022-09-20T17:12:47.311Z,101111.41
2022-09-20T17:17:44.602Z,101107.66
2022-09-20T17:22:42.603Z,101103.94
2022-09-20T17:27:42.388Z,101114.97
2022-09-20T17:32:52.672Z,101108.16
2022-09-20T17:38:12.816Z,101119.75
2022-09-20T17:43:15.030Z,101120.94
2022-09-20T17:48:15.031Z,101122.09
2022-09-20T17:53:11.760Z,101106.25
2022-09-20T17:58:11.009Z,101128.44
2022-09-20T18:03:07.768Z,101139.50
2022-09-20T18:08:08.725Z,101144.97
2022-09-20T18:13:06.422Z,101132.22
2022-09-20T18:18:09.235Z,101139.91
2022-09-20T18:23:09.261Z,101132.44
2022-09-20T18:28:08.283Z,101149.84
2022-09-20T18:33:08.441Z,101144.63
2022-09-20T18:38:07.084Z,101152.31
2022-09-20T18:43:04.881Z,101157.25
2022-09-20T18:48:01.755Z,101156.91
2022-09-20T18:52:59.248Z,101161.66
2022-09-20T18:58:02.932Z,101151.84
2022-09-20T19:03:09.991Z,101153.44
2022-09-20T19:08:11.937Z,101147.91
2022-09-20T19:13:19.735Z,101143.38
2022-09-20T19:18:30.840Z,101148.91
2022-09-20T19:23:47.317Z,101152.16
2022-09-20T19:28:45.274Z,101158.47
2022-09-20T19:33:48.042Z,101158.47
2022-09-20T19:38:50.069Z,101152.81
2022-09-20T19:43:59.626Z,101163.88
2022-09-20T19:49:06.887Z,101169.63
2022-09-20T19:54:03.904Z,101157.78
2022-09-20T19:59:09.164Z,101166.03
2022-09-20T20:04:09.746Z,101159.94
2022-09-20T20:09:11.422Z,101174.25
2022-09-20T20:14:18.297Z,101171.94
2022-09-20T20:19:36.697Z,101177.53
2022-09-20T20:24:41.490Z,101176.38
2022-09-20T20:29:46.298Z,101181.09
2022-09-20T20:34:54.746Z,101187.13
2022-09-20T20:39:51.581Z,101185.09
2022-09-20T20:44:56.591Z,101190.31
2022-09-20T20:49:54.606Z,101173.91
2022-09-20T20:54:54.500Z,101185.66
2022-09-20T20:59:55.233Z,101207.63
2022-09-20T21:04:55.737Z,101213.34
2022-09-20T21:09:54.642Z,101213.78
2022-09-20T21:14:53.591Z,101217.19
2022-09-20T21:19:54.925Z,101217.03
2022-09-20T21:24:55.517Z,101214.09
2022-09-20T21:29:53.996Z,101215.84
2022-09-20T21:34:50.740Z,101218.84
2022-09-20T21:39:47.611Z,101215.78
2022-09-20T21:44:44.398Z,101216.97
2022-09-20T21:49:41.887Z,101217.78
2022-09-20T21:54:41.660Z,101206.63
2022-09-20T21:59:39.887Z,101210.16
2022-09-20T22:04:36.716Z,101211.44
2022-09-20T22:09:34.215Z,101223.09
2022-09-20T22:14:31.248Z,101229.09
2022-09-20T22:19:28.023Z,101222.75
2022-09-20T22:24:24.767Z,101221.09
2022-09-20T22:29:24.485Z,101220.22
2022-09-20T22:34:24.218Z,101222.28
2022-09-20T22:39:20.933Z,101219.00
2022-09-20T22:44:17.795Z,101213.72
2022-09-20T22:49:17.166Z,101216.44
2022-09-20T22:54:14.000Z,101216.63
2022-09-20T22:59:14.079Z,101217.69
2022-09-20T23:04:12.474Z,101189.16
2022-09-20T23:09:11.133Z,101171.88
2022-09-20T23:14:12.765Z,101223.13
2022-09-20T23:19:12.020Z,101232.72
2022-09-20T23:24:13.631Z,101232.47
2022-09-20T23:29:14.702Z,101232.16
2022-09-20T23:34:15.055Z,101228.06
2022-09-20T23:39:15.087Z,101231.91
2022-09-20T23:44:11.822Z,101231.25
2022-09-20T23:49:10.949Z,101230.44
2022-09-20T23:54:07.655Z,101231.19
2022-09-20T23:59:05.019Z,101216.75
